createdAt,value
2023-02-26T00:01:37.591Z,96153.00
2023-02-26T00:04:06.512Z,96162.00
2023-02-26T00:06:37.503Z,96164.00
2023-02-26T00:09:06.473Z,96165.00
2023-02-26T00:11:34.279Z,96174.00
2023-02-26T00:14:01.294Z,96172.00
2023-02-26T00:16:33.193Z,96176.00
2023-02-26T00:19:04.840Z,96174.00
2023-02-26T00:21:33.188Z,96177.00
2023-02-26T00:24:01.970Z,96175.00
2023-02-26T00:26:31.458Z,96171.00
2023-02-26T00:28:58.971Z,96178.00
2023-02-26T00:31:26.549Z,96183.00
2023-02-26T00:33:55.415Z,96179.00
2023-02-26T00:37:10.308Z,96186.00
2023-02-26T00:39:46.213Z,96185.00
2023-02-26T00:42:14.361Z,96186.00
2023-02-26T00:44:41.888Z,96188.00
2023-02-26T00:47:36.587Z,96189.00
2023-02-26T00:50:23.857Z,96189.00
2023-02-26T00:53:22.740Z,96200.00
2023-02-26T00:55:49.513Z,96200.00
2023-02-26T00:58:16.388Z,96191.00
2023-02-26T01:00:43.243Z,96198.00
2023-02-26T01:03:11.973Z,96188.00
2023-02-26T01:05:39.266Z,96196.00
2023-02-26T01:08:22.826Z,96192.00
2023-02-26T01:10:51.124Z,96200.00
2023-02-26T01:13:19.070Z,96196.00
2023-02-26T01:15:53.269Z,96182.00
2023-02-26T01:18:29.759Z,96192.00
2023-02-26T01:21:10.738Z,96186.00
2023-02-26T01:23:51.081Z,96188.00
2023-02-26T01:26:29.557Z,96191.00
2023-02-26T01:28:57.365Z,96195.00
2023-02-26T01:32:00.916Z,96192.00
2023-02-26T01:35:00.372Z,96195.00
2023-02-26T01:37:49.375Z,96203.00
2023-02-26T01:41:01.306Z,96199.00
2023-02-26T01:44:04.667Z,96209.00
2023-02-26T01:46:55.804Z,96205.00
2023-02-26T01:49:23.605Z,96202.00
2023-02-26T01:52:07.104Z,96195.00
2023-02-26T01:54:38.878Z,96212.00
2023-02-26T01:57:11.688Z,96215.00
2023-02-26T01:59:45.497Z,96202.00
2023-02-26T02:02:16.983Z,96220.00
2023-02-26T02:04:44.955Z,96221.00
2023-02-26T02:07:12.291Z,96218.00
2023-02-26T02:09:39.671Z,96220.00
2023-02-26T02:12:22.985Z,96219.00
2023-02-26T02:15:10.080Z,96233.00
2023-02-26T02:18:17.640Z,96227.00
2023-02-26T02:21:15.974Z,96231.00
2023-02-26T02:24:04.684Z,96233.00
2023-02-26T02:27:00.012Z,96230.00
2023-02-26T02:29:38.683Z,96233.00
2023-02-26T02:32:12.889Z,96244.00
2023-02-26T02:35:34.349Z,96237.00
2023-02-26T02:38:11.233Z,96240.00
2023-02-26T02:40:44.627Z,96249.00
2023-02-26T02:43:17.530Z,96248.00
2023-02-26T02:45:56.974Z,96248.00
2023-02-26T02:48:40.469Z,96248.00
2023-02-26T02:51:33.799Z,96256.00
2023-02-26T02:54:23.151Z,96257.00
2023-02-26T02:56:57.326Z,96256.00
2023-02-26T02:59:33.549Z,96259.00
2023-02-26T03:02:19.911Z,96261.00
2023-02-26T03:04:48.342Z,96262.00
2023-02-26T03:07:15.557Z,96270.00
2023-02-26T03:09:43.350Z,96275.00
2023-02-26T03:12:10.708Z,96276.00
2023-02-26T03:14:38.693Z,96279.00
2023-02-26T03:18:07.009Z,96289.00
2023-02-26T03:20:50.813Z,96282.00
2023-02-26T03:23:35.241Z,96283.00
2023-02-26T03:26:15.649Z,96274.00
2023-02-26T03:29:21.085Z,96295.00
2023-02-26T03:31:58.527Z,96299.00
2023-02-26T03:34:40.826Z,96298.00
2023-02-26T03:37:22.121Z,96297.00
2023-02-26T03:39:56.827Z,96303.00
2023-02-26T03:42:49.622Z,96305.00
2023-02-26T03:45:22.144Z,96308.00
2023-02-26T03:47:53.916Z,96313.00
2023-02-26T03:50:27.675Z,96315.00
2023-02-26T03:52:55.002Z,96317.00
2023-02-26T03:55:30.902Z,96323.00
2023-02-26T03:57:58.148Z,96323.00
2023-02-26T04:00:26.695Z,96323.00
2023-02-26T04:03:11.684Z,96330.00
2023-02-26T04:05:49.114Z,96322.00
2023-02-26T04:08:16.410Z,96327.00
2023-02-26T04:10:53.281Z,96330.00
2023-02-26T04:13:20.057Z,96331.00
2023-02-26T04:15:46.936Z,96336.00
2023-02-26T04:18:13.873Z,96342.00
2023-02-26T04:20:40.675Z,96350.00
2023-02-26T04:23:07.432Z,96344.00
2023-02-26T04:25:34.258Z,96350.00
2023-02-26T04:28:01.443Z,96352.00
2023-02-26T04:30:28.359Z,96348.00
2023-02-26T04:32:56.559Z,96358.00
2023-02-26T04:35:23.716Z,96367.00
2023-02-26T04:37:50.472Z,96363.00
2023-02-26T04:40:17.381Z,96368.00
2023-02-26T04:42:47.248Z,96370.00
2023-02-26T04:45:14.440Z,96366.00
2023-02-26T04:47:41.274Z,96377.00
2023-02-26T04:50:09.532Z,96378.00
2023-02-26T04:52:36.438Z,96380.00
2023-02-26T04:55:03.539Z,96385.00
2023-02-26T04:57:31.078Z,96386.00
2023-02-26T05:00:04.502Z,96378.00
2023-02-26T05:02:31.296Z,96395.00
2023-02-26T05:04:58.071Z,96381.00
2023-02-26T05:07:24.842Z,96396.00
2023-02-26T05:09:51.781Z,96407.00
2023-02-26T05:12:18.551Z,96405.00
2023-02-26T05:14:45.325Z,96410.00
2023-02-26T05:17:12.162Z,96411.00
2023-02-26T05:19:38.909Z,96417.00
2023-02-26T05:22:06.383Z,96417.00
2023-02-26T05:24:33.344Z,96429.00
2023-02-26T05:27:00.129Z,96426.00
2023-02-26T05:29:26.964Z,96427.00
2023-02-26T05:31:53.948Z,96430.00
2023-02-26T05:34:20.826Z,96431.00
2023-02-26T05:36:54.834Z,96437.00
2023-02-26T05:39:21.641Z,96438.00
2023-02-26T05:41:49.148Z,96444.00
2023-02-26T05:44:15.944Z,96442.00
2023-02-26T05:46:42.759Z,96442.00
2023-02-26T05:49:10.434Z,96447.00
2023-02-26T05:51:37.236Z,96453.00
2023-02-26T05:54:06.334Z,96464.00
2023-02-26T05:56:33.079Z,96471.00
2023-02-26T05:58:59.909Z,96467.00
2023-02-26T06:01:26.700Z,96461.00
2023-02-26T06:03:54.919Z,96472.00
2023-02-26T06:06:21.894Z,96483.00
2023-02-26T06:08:49.008Z,96477.00
2023-02-26T06:11:16.753Z,96475.00
2023-02-26T06:13:43.673Z,96495.00
2023-02-26T06:16:10.527Z,96493.00
2023-02-26T06:18:37.409Z,96498.00
2023-02-26T06:21:04.639Z,96496.00
2023-02-26T06:23:31.432Z,96507.00
2023-02-26T06:25:59.816Z,96504.00
2023-02-26T06:28:27.264Z,96504.00
2023-02-26T06:30:55.010Z,96516.00
2023-02-26T06:33:22.261Z,96525.00
2023-02-26T06:35:49.863Z,96521.00
2023-02-26T06:38:17.948Z,96526.00
2023-02-26T06:40:47.772Z,96542.00
2023-02-26T06:43:14.549Z,96546.00
2023-02-26T06:45:41.890Z,96547.00
2023-02-26T06:48:09.223Z,96559.00
2023-02-26T06:50:36.900Z,96552.00
2023-02-26T06:53:04.485Z,96565.00
2023-02-26T06:55:32.108Z,96560.00
2023-02-26T06:57:58.911Z,96560.00
2023-02-26T07:00:26.498Z,96586.00
2023-02-26T07:02:53.590Z,96572.00
2023-02-26T07:05:21.823Z,96584.00
2023-02-26T07:07:48.899Z,96581.00
2023-02-26T07:10:15.684Z,96575.00
2023-02-26T07:12:42.569Z,96591.00
2023-02-26T07:15:09.819Z,96592.00
2023-02-26T07:17:36.782Z,96594.00
2023-02-26T07:20:10.026Z,96593.00
2023-02-26T07:22:38.541Z,96603.00
2023-02-26T07:25:07.109Z,96614.00
2023-02-26T07:27:34.456Z,96606.00
2023-02-26T07:30:02.188Z,96618.00
2023-02-26T07:32:30.326Z,96621.00
2023-02-26T07:34:58.053Z,96617.00
2023-02-26T07:37:25.743Z,96618.00
2023-02-26T07:39:52.772Z,96632.00
2023-02-26T07:42:19.906Z,96633.00
2023-02-26T07:44:46.805Z,96644.00
2023-02-26T07:47:14.001Z,96647.00
2023-02-26T07:49:41.000Z,96656.00
2023-02-26T07:52:08.164Z,96656.00
2023-02-26T07:54:36.572Z,96665.00
2023-02-26T07:57:04.432Z,96664.00
2023-02-26T07:59:31.224Z,96668.00
2023-02-26T08:01:58.078Z,96672.00
2023-02-26T08:04:24.968Z,96670.00
2023-02-26T08:06:54.546Z,96671.00
2023-02-26T08:09:22.119Z,96673.00
2023-02-26T08:11:48.989Z,96663.00
2023-02-26T08:14:15.829Z,96668.00
2023-02-26T08:16:42.705Z,96676.00
2023-02-26T08:19:09.780Z,96677.00
2023-02-26T08:21:36.997Z,96682.00
2023-02-26T08:24:03.976Z,96681.00
2023-02-26T08:26:30.794Z,96679.00
2023-02-26T08:28:57.606Z,96694.00
2023-02-26T08:31:24.557Z,96696.00
2023-02-26T08:33:51.568Z,96700.00
2023-02-26T08:36:18.354Z,96699.00
2023-02-26T08:38:45.143Z,96701.00
2023-02-26T08:41:11.963Z,96710.00
2023-02-26T08:43:38.800Z,96709.00
2023-02-26T08:46:06.148Z,96715.00
2023-02-26T08:48:33.185Z,96710.00
2023-02-26T08:51:00.020Z,96719.00
2023-02-26T08:53:27.198Z,96732.00
2023-02-26T08:55:54.446Z,96730.00
2023-02-26T08:58:21.714Z,96730.00
2023-02-26T09:00:49.104Z,96731.00
2023-02-26T09:03:15.949Z,96744.00
2023-02-26T09:05:42.979Z,96745.00
2023-02-26T09:08:11.516Z,96753.00
2023-02-26T09:10:40.696Z,96757.00
2023-02-26T09:13:08.689Z,96759.00
2023-02-26T09:15:35.641Z,96767.00
2023-02-26T09:18:06.218Z,96768.00
2023-02-26T09:20:33.142Z,96776.00
2023-02-26T09:22:59.932Z,96775.00
2023-02-26T09:25:26.904Z,96775.00
2023-02-26T09:27:53.734Z,96781.00
2023-02-26T09:30:20.731Z,96768.00
2023-02-26T09:32:47.631Z,96780.00
2023-02-26T09:35:14.489Z,96779.00
2023-02-26T09:37:41.351Z,96776.00
2023-02-26T09:40:22.326Z,96793.00
2023-02-26T09:43:28.273Z,96800.00
2023-02-26T09:46:00.285Z,96793.00
2023-02-26T09:48:31.040Z,96799.00
2023-02-26T09:50:59.374Z,96798.00
2023-02-26T09:53:38.817Z,96807.00
2023-02-26T09:56:41.194Z,96803.00
2023-02-26T09:59:10.857Z,96807.00
2023-02-26T10:01:44.197Z,96817.00
2023-02-26T10:04:44.649Z,96818.00
2023-02-26T10:07:29.607Z,96813.00
2023-02-26T10:10:09.485Z,96812.00
2023-02-26T10:12:40.780Z,96817.00
2023-02-26T10:15:40.553Z,96821.00
2023-02-26T10:18:21.746Z,96824.00
2023-02-26T10:21:18.156Z,96830.00
2023-02-26T10:23:53.069Z,96828.00
2023-02-26T10:26:27.795Z,96832.00
2023-02-26T10:29:26.198Z,96840.00
2023-02-26T10:32:06.470Z,96842.00
2023-02-26T10:34:47.393Z,96841.00
2023-02-26T10:37:21.777Z,96843.00
2023-02-26T10:40:16.199Z,96842.00
2023-02-26T10:42:59.885Z,96852.00
2023-02-26T10:45:53.928Z,96855.00
2023-02-26T10:48:47.301Z,96861.00
2023-02-26T10:51:37.330Z,96859.00
2023-02-26T10:54:15.183Z,96862.00
2023-02-26T10:56:41.960Z,96881.00
2023-02-26T10:59:08.879Z,96877.00
2023-02-26T11:01:36.998Z,96891.00
2023-02-26T11:04:13.357Z,96884.00
2023-02-26T11:06:49.962Z,96884.00
2023-02-26T11:09:26.685Z,96889.00
2023-02-26T11:12:02.056Z,96887.00
2023-02-26T11:14:30.832Z,96877.00
2023-02-26T11:17:02.609Z,96891.00
2023-02-26T11:19:35.998Z,96879.00
2023-02-26T11:22:04.551Z,96882.00
2023-02-26T11:24:44.158Z,96883.00
2023-02-26T11:27:22.649Z,96879.00
2023-02-26T11:30:15.396Z,96871.00
2023-02-26T11:32:45.442Z,96872.00
2023-02-26T11:35:17.407Z,96873.00
2023-02-26T11:37:52.969Z,96882.00
2023-02-26T11:40:32.218Z,96890.00
2023-02-26T11:43:06.234Z,96879.00
2023-02-26T11:45:37.067Z,96882.00
2023-02-26T11:48:08.153Z,96884.00
2023-02-26T11:50:47.501Z,96889.00
2023-02-26T11:53:32.765Z,96890.00
2023-02-26T11:56:14.372Z,96884.00
2023-02-26T11:58:46.083Z,96890.00
2023-02-26T12:01:17.037Z,96880.00
2023-02-26T12:03:48.245Z,96885.00
2023-02-26T12:06:24.714Z,96888.00
2023-02-26T12:08:53.396Z,96870.00
2023-02-26T12:12:04.341Z,96880.00
2023-02-26T12:14:43.720Z,96884.00
2023-02-26T12:17:46.995Z,96874.00
2023-02-26T12:20:52.380Z,96870.00
2023-02-26T12:23:50.948Z,96867.00
2023-02-26T12:26:34.266Z,96864.00
2023-02-26T12:29:49.540Z,96854.00
2023-02-26T12:32:51.743Z,96860.00
2023-02-26T12:35:43.655Z,96839.00
2023-02-26T12:38:21.494Z,96838.00
2023-02-26T12:41:05.164Z,96839.00
2023-02-26T12:43:41.839Z,96823.00
2023-02-26T12:46:54.137Z,96829.00
2023-02-26T12:49:52.697Z,96834.00
2023-02-26T12:53:16.432Z,96837.00
2023-02-26T12:55:59.371Z,96849.00
2023-02-26T12:58:54.140Z,96856.00
2023-02-26T13:02:00.510Z,96861.00
2023-02-26T13:05:02.054Z,96858.00
2023-02-26T13:07:52.922Z,96850.00
2023-02-26T13:10:31.622Z,96855.00
2023-02-26T13:13:41.772Z,96860.00
2023-02-26T13:16:35.191Z,96862.00
2023-02-26T13:19:25.941Z,96853.00
2023-02-26T13:22:19.140Z,96854.00
2023-02-26T13:25:10.077Z,96859.00
2023-02-26T13:27:39.398Z,96861.00
2023-02-26T13:30:34.530Z,96854.00
2023-02-26T13:33:02.904Z,96858.00
2023-02-26T13:35:39.775Z,96861.00
2023-02-26T13:38:38.202Z,96867.00
2023-02-26T13:41:26.235Z,96871.00
2023-02-26T13:44:21.032Z,96860.00
2023-02-26T13:47:42.477Z,96861.00
2023-02-26T13:50:55.171Z,96871.00
2023-02-26T13:53:27.506Z,96864.00
2023-02-26T13:55:57.667Z,96867.00
2023-02-26T13:58:24.373Z,96867.00
2023-02-26T14:01:08.536Z,96867.00
2023-02-26T14:03:45.942Z,96868.00
2023-02-26T14:06:27.837Z,96876.00
2023-02-26T14:08:58.341Z,96899.00
2023-02-26T14:11:44.627Z,96900.00
2023-02-26T14:14:48.622Z,96910.00
2023-02-26T14:17:15.331Z,96921.00
2023-02-26T14:20:23.241Z,96937.00
2023-02-26T14:23:36.058Z,96918.00
2023-02-26T14:26:10.509Z,96921.00
2023-02-26T14:29:08.151Z,96936.00
2023-02-26T14:32:05.371Z,96932.00
2023-02-26T14:34:37.618Z,96926.00
2023-02-26T14:37:08.842Z,96935.00
2023-02-26T14:40:08.838Z,96935.00
2023-02-26T14:42:59.468Z,96938.00
2023-02-26T14:45:35.750Z,96938.00
2023-02-26T14:48:07.640Z,96939.00
2023-02-26T14:51:04.825Z,96935.00
2023-02-26T14:54:12.325Z,96939.00
2023-02-26T14:57:27.361Z,96939.00
2023-02-26T15:00:42.161Z,96955.00
2023-02-26T15:03:45.681Z,96947.00
2023-02-26T15:06:38.730Z,96955.00
2023-02-26T15:09:23.028Z,96969.00
2023-02-26T15:12:02.975Z,96955.00
2023-02-26T15:15:08.139Z,96957.00
2023-02-26T15:18:02.052Z,96960.00
2023-02-26T15:20:47.488Z,96959.00
2023-02-26T15:23:40.390Z,96962.00
2023-02-26T15:26:12.697Z,96966.00
2023-02-26T15:28:41.550Z,96984.00
2023-02-26T15:31:13.552Z,96982.00
2023-02-26T15:33:41.212Z,96981.00
2023-02-26T15:36:13.832Z,96979.00
2023-02-26T15:38:50.430Z,96985.00
2023-02-26T15:41:18.395Z,96989.00
2023-02-26T15:44:01.210Z,96999.00
2023-02-26T15:46:33.880Z,96993.00
2023-02-26T15:49:34.098Z,97015.00
2023-02-26T15:52:03.108Z,97007.00
2023-02-26T15:54:44.829Z,97019.00
2023-02-26T15:57:13.718Z,97020.00
2023-02-26T15:59:46.774Z,97024.00
2023-02-26T16:02:16.194Z,97026.00
2023-02-26T16:04:44.115Z,97037.00
2023-02-26T16:07:13.196Z,97027.00
2023-02-26T16:09:47.962Z,97035.00
2023-02-26T16:12:20.829Z,97043.00
2023-02-26T16:14:57.122Z,97043.00
2023-02-26T16:17:31.092Z,97047.00
2023-02-26T16:20:04.294Z,97050.00
2023-02-26T16:22:37.835Z,97054.00
2023-02-26T16:25:25.524Z,97061.00
2023-02-26T16:28:21.323Z,97076.00
2023-02-26T16:30:54.287Z,97076.00
2023-02-26T16:33:24.108Z,97067.00
2023-02-26T16:36:17.634Z,97083.00
2023-02-26T16:38:49.869Z,97088.00
2023-02-26T16:41:21.242Z,97092.00
2023-02-26T16:43:57.652Z,97102.00
2023-02-26T16:46:42.623Z,97107.00
2023-02-26T16:49:23.889Z,97105.00
2023-02-26T16:51:51.801Z,97103.00
2023-02-26T16:54:25.565Z,97113.00
2023-02-26T16:57:00.675Z,97106.00
2023-02-26T16:59:32.070Z,97116.00
2023-02-26T17:02:14.328Z,97118.00
2023-02-26T17:04:41.641Z,97113.00
2023-02-26T17:07:29.884Z,97123.00
2023-02-26T17:10:13.628Z,97122.00
2023-02-26T17:12:50.924Z,97132.00
2023-02-26T17:15:31.022Z,97132.00
2023-02-26T17:17:58.874Z,97130.00
2023-02-26T17:20:27.730Z,97134.00
2023-02-26T17:22:55.965Z,97139.00
2023-02-26T17:25:25.271Z,97140.00
2023-02-26T17:27:52.701Z,97143.00
2023-02-26T17:30:24.047Z,97151.00
2023-02-26T17:32:51.196Z,97156.00
2023-02-26T17:35:19.138Z,97160.00
2023-02-26T17:37:47.141Z,97158.00
2023-02-26T17:40:21.311Z,97169.00
2023-02-26T17:42:48.830Z,97174.00
2023-02-26T17:45:16.110Z,97176.00
2023-02-26T17:47:43.214Z,97186.00
2023-02-26T17:50:26.891Z,97176.00
2023-02-26T17:52:53.803Z,97179.00
2023-02-26T17:55:20.637Z,97180.00
2023-02-26T17:57:47.414Z,97177.00
2023-02-26T18:00:16.750Z,97180.00
2023-02-26T18:02:43.656Z,97186.00
2023-02-26T18:05:10.660Z,97194.00
2023-02-26T18:07:38.559Z,97189.00
2023-02-26T18:10:06.624Z,97190.00
2023-02-26T18:12:33.395Z,97195.00
2023-02-26T18:15:00.237Z,97191.00
2023-02-26T18:17:31.042Z,97189.00
2023-02-26T18:19:58.439Z,97199.00
2023-02-26T18:22:27.400Z,97195.00
2023-02-26T18:24:55.429Z,97195.00
2023-02-26T18:27:24.861Z,97192.00
2023-02-26T18:29:52.592Z,97205.00
2023-02-26T18:32:23.691Z,97192.00
2023-02-26T18:34:51.129Z,97204.00
2023-02-26T18:37:21.977Z,97216.00
2023-02-26T18:39:49.208Z,97210.00
2023-02-26T18:42:25.516Z,97214.00
2023-02-26T18:44:53.560Z,97214.00
2023-02-26T18:47:22.169Z,97229.00
2023-02-26T18:49:50.662Z,97228.00
2023-02-26T18:52:18.061Z,97242.00
2023-02-26T18:54:45.187Z,97233.00
2023-02-26T18:57:12.084Z,97248.00
2023-02-26T18:59:38.979Z,97242.00
2023-02-26T19:02:06.896Z,97248.00
2023-02-26T19:04:34.249Z,97252.00
2023-02-26T19:07:01.615Z,97255.00
2023-02-26T19:09:28.827Z,97253.00
2023-02-26T19:11:57.256Z,97252.00
2023-02-26T19:14:25.353Z,97257.00
2023-02-26T19:16:52.643Z,97258.00
2023-02-26T19:19:19.592Z,97275.00
2023-02-26T19:21:46.777Z,97268.00
2023-02-26T19:24:14.636Z,97267.00
2023-02-26T19:26:42.543Z,97269.00
2023-02-26T19:29:15.730Z,97278.00
2023-02-26T19:31:42.925Z,97279.00
2023-02-26T19:34:11.055Z,97273.00
2023-02-26T19:36:37.914Z,97283.00
2023-02-26T19:39:06.206Z,97290.00
2023-02-26T19:41:34.514Z,97291.00
2023-02-26T19:44:03.551Z,97302.00
2023-02-26T19:46:31.602Z,97308.00
2023-02-26T19:48:59.413Z,97314.00
2023-02-26T19:51:26.544Z,97312.00
2023-02-26T19:53:55.133Z,97306.00
2023-02-26T19:56:22.013Z,97300.00
2023-02-26T19:58:49.135Z,97308.00
2023-02-26T20:01:17.062Z,97298.00
2023-02-26T20:03:43.983Z,97304.00
2023-02-26T20:06:12.748Z,97299.00
2023-02-26T20:08:41.943Z,97302.00
2023-02-26T20:11:10.771Z,97306.00
2023-02-26T20:13:39.763Z,97303.00
2023-02-26T20:16:09.761Z,97316.00
2023-02-26T20:18:38.582Z,97312.00
2023-02-26T20:21:09.586Z,97304.00
2023-02-26T20:23:39.247Z,97309.00
2023-02-26T20:26:11.364Z,97304.00
2023-02-26T20:28:38.980Z,97309.00
2023-02-26T20:31:06.757Z,97309.00
2023-02-26T20:33:37.502Z,97321.00
2023-02-26T20:36:06.131Z,97318.00
2023-02-26T20:38:33.201Z,97330.00
2023-02-26T20:41:00.028Z,97342.00
2023-02-26T20:43:28.503Z,97343.00
2023-02-26T20:45:56.653Z,97349.00
2023-02-26T20:48:26.492Z,97353.00
2023-02-26T20:51:00.423Z,97351.00
2023-02-26T20:53:29.452Z,97354.00
2023-02-26T20:55:56.467Z,97352.00
2023-02-26T20:58:26.024Z,97355.00
2023-02-26T21:00:58.108Z,97362.00
2023-02-26T21:03:26.141Z,97369.00
2023-02-26T21:05:53.841Z,97365.00
2023-02-26T21:08:22.006Z,97366.00
2023-02-26T21:10:51.871Z,97372.00
2023-02-26T21:13:19.840Z,97366.00
2023-02-26T21:15:49.734Z,97375.00
2023-02-26T21:18:17.328Z,97385.00
2023-02-26T21:20:45.000Z,97377.00
2023-02-26T21:23:12.521Z,97379.00
2023-02-26T21:25:40.038Z,97383.00
2023-02-26T21:28:07.535Z,97381.00
2023-02-26T21:30:36.276Z,97368.00
2023-02-26T21:33:04.098Z,97380.00
2023-02-26T21:35:31.032Z,97375.00
2023-02-26T21:37:57.999Z,97377.00
2023-02-26T21:40:25.090Z,97385.00
2023-02-26T21:42:51.954Z,97371.00
2023-02-26T21:45:18.950Z,97375.00
2023-02-26T21:47:45.766Z,97362.00
2023-02-26T21:50:12.727Z,97360.00
2023-02-26T21:52:39.585Z,97358.00
2023-02-26T21:55:06.773Z,97361.00
2023-02-26T21:57:33.600Z,97371.00
2023-02-26T22:00:00.430Z,97364.00
2023-02-26T22:02:27.309Z,97367.00
2023-02-26T22:04:54.103Z,97369.00
2023-02-26T22:07:20.965Z,97369.00
2023-02-26T22:09:48.908Z,97374.00
2023-02-26T22:12:17.217Z,97373.00
2023-02-26T22:14:44.133Z,97368.00
2023-02-26T22:17:12.916Z,97379.00
2023-02-26T22:19:39.701Z,97370.00
2023-02-26T22:22:06.906Z,97372.00
2023-02-26T22:24:33.770Z,97376.00
2023-02-26T22:27:00.543Z,97370.00
2023-02-26T22:29:28.117Z,97367.00
2023-02-26T22:31:56.667Z,97371.00
2023-02-26T22:34:23.596Z,97378.00
2023-02-26T22:36:52.103Z,97386.00
2023-02-26T22:39:19.635Z,97381.00
2023-02-26T22:41:47.918Z,97390.00
2023-02-26T22:44:15.824Z,97395.00
2023-02-26T22:46:44.802Z,97392.00
2023-02-26T22:49:11.562Z,97406.00
2023-02-26T22:51:39.051Z,97401.00
2023-02-26T22:54:06.579Z,97404.00
2023-02-26T22:56:33.511Z,97404.00
2023-02-26T22:59:00.678Z,97400.00
2023-02-26T23:01:29.685Z,97414.00
2023-02-26T23:03:57.624Z,97414.00
2023-02-26T23:06:25.419Z,97415.00
2023-02-26T23:08:53.867Z,97422.00
2023-02-26T23:11:20.704Z,97423.00
2023-02-26T23:13:48.893Z,97415.00
2023-02-26T23:16:16.763Z,97432.00
2023-02-26T23:18:45.583Z,97429.00
2023-02-26T23:21:13.300Z,97424.00
2023-02-26T23:23:41.592Z,97429.00
2023-02-26T23:26:08.958Z,97418.00
2023-02-26T23:28:36.480Z,97419.00
2023-02-26T23:31:05.392Z,97431.00
2023-02-26T23:33:32.316Z,97426.00
2023-02-26T23:35:59.083Z,97410.00
2023-02-26T23:38:27.012Z,97429.00
2023-02-26T23:40:53.883Z,97429.00
2023-02-26T23:43:20.986Z,97427.00
2023-02-26T23:45:47.755Z,97432.00
2023-02-26T23:48:14.687Z,97421.00
2023-02-26T23:50:41.764Z,97423.00
2023-02-26T23:53:10.672Z,97423.00
2023-02-26T23:55:37.423Z,97424.00
2023-02-26T23:58:04.213Z,97426.00
